sensor_id;sensor_type;location;lat;lon;timestamp;pressure;altitude;pressure_sealevel;temperature;humidity
30819;BME280;17546;42.674;23.284;2023-03-01T00:01:51;95200.78;;;13.42;48.89
30819;BME280;17546;42.674;23.284;2023-03-01T00:04:17;95191.44;;;13.28;49.34
30819;BME280;17546;42.674;23.284;2023-03-01T00:06:43;95185.78;;;13.00;49.82
30819;BME280;17546;42.674;23.284;2023-03-01T00:09:12;95184.53;;;13.07;49.92
30819;BME280;17546;42.674;23.284;2023-03-01T00:11:37;95183.72;;;12.89;50.23
30819;BME280;17546;42.674;23.284;2023-03-01T00:14:03;95172.88;;;12.97;50.27
30819;BME280;17546;42.674;23.284;2023-03-01T00:16:35;95174.16;;;13.13;49.71
30819;BME280;17546;42.674;23.284;2023-03-01T00:19:00;95171.88;;;12.94;50.12
30819;BME280;17546;42.674;23.284;2023-03-01T00:21:27;95165.78;;;12.96;49.71
30819;BME280;17546;42.674;23.284;2023-03-01T00:23:53;95159.22;;;12.88;50.13
30819;BME280;17546;42.674;23.284;2023-03-01T00:26:20;95156.94;;;12.86;50.20
30819;BME280;17546;42.674;23.284;2023-03-01T00:28:46;95150.88;;;12.93;50.09
30819;BME280;17546;42.674;23.284;2023-03-01T00:31:20;95148.34;;;12.95;49.97
30819;BME280;17546;42.674;23.284;2023-03-01T00:33:46;95137.97;;;12.85;50.17
30819;BME280;17546;42.674;23.284;2023-03-01T00:36:14;95140.31;;;13.31;49.10
30819;BME280;17546;42.674;23.284;2023-03-01T00:38:42;95139.34;;;13.34;48.87
30819;BME280;17546;42.674;23.284;2023-03-01T00:41:11;95143.56;;;13.13;49.12
30819;BME280;17546;42.674;23.284;2023-03-01T00:43:37;95123.63;;;13.31;48.63
30819;BME280;17546;42.674;23.284;2023-03-01T00:46:08;95143.63;;;13.35;48.62
30819;BME280;17546;42.674;23.284;2023-03-01T00:48:35;95132.72;;;13.15;49.15
30819;BME280;17546;42.674;23.284;2023-03-01T00:51:08;95144.06;;;13.11;49.26
30819;BME280;17546;42.674;23.284;2023-03-01T00:53:34;95138.16;;;12.70;49.64
30819;BME280;17546;42.674;23.284;2023-03-01T00:56:00;95138.75;;;13.02;49.39
30819;BME280;17546;42.674;23.284;2023-03-01T00:58:25;95138.25;;;13.03;48.81
30819;BME280;17546;42.674;23.284;2023-03-01T01:00:51;95136.94;;;12.71;50.02
30819;BME280;17546;42.674;23.284;2023-03-01T01:03:18;95141.72;;;12.76;49.79
30819;BME280;17546;42.674;23.284;2023-03-01T01:05:43;95141.16;;;12.49;50.21
30819;BME280;17546;42.674;23.284;2023-03-01T01:08:08;95143.66;;;12.47;50.07
30819;BME280;17546;42.674;23.284;2023-03-01T01:10:34;95138.31;;;12.38;50.76
30819;BME280;17546;42.674;23.284;2023-03-01T01:13:00;95140.47;;;12.77;49.81
30819;BME280;17546;42.674;23.284;2023-03-01T01:15:26;95137.59;;;12.43;50.23
30819;BME280;17546;42.674;23.284;2023-03-01T01:17:52;95133.53;;;12.33;50.54
30819;BME280;17546;42.674;23.284;2023-03-01T01:20:17;95137.66;;;12.60;50.05
30819;BME280;17546;42.674;23.284;2023-03-01T01:22:43;95132.66;;;12.81;49.35
30819;BME280;17546;42.674;23.284;2023-03-01T01:25:08;95137.22;;;12.95;49.28
30819;BME280;17546;42.674;23.284;2023-03-01T01:27:34;95137.28;;;13.29;48.44
30819;BME280;17546;42.674;23.284;2023-03-01T01:30:00;95138.28;;;13.15;48.74
30819;BME280;17546;42.674;23.284;2023-03-01T01:32:25;95149.09;;;12.90;48.98
30819;BME280;17546;42.674;23.284;2023-03-01T01:34:51;95144.31;;;12.96;49.16
30819;BME280;17546;42.674;23.284;2023-03-01T01:37:16;95149.88;;;12.96;48.97
30819;BME280;17546;42.674;23.284;2023-03-01T01:39:41;95151.63;;;12.94;48.82
30819;BME280;17546;42.674;23.284;2023-03-01T01:42:16;95160.69;;;12.83;48.82
30819;BME280;17546;42.674;23.284;2023-03-01T01:44:44;95158.97;;;13.02;48.36
30819;BME280;17546;42.674;23.284;2023-03-01T01:47:16;95154.16;;;12.92;48.77
30819;BME280;17546;42.674;23.284;2023-03-01T01:49:56;95155.47;;;13.08;48.30
30819;BME280;17546;42.674;23.284;2023-03-01T01:52:26;95152.66;;;13.02;48.15
30819;BME280;17546;42.674;23.284;2023-03-01T01:55:05;95149.63;;;13.11;47.93
30819;BME280;17546;42.674;23.284;2023-03-01T01:57:36;95155.06;;;12.60;48.56
30819;BME280;17546;42.674;23.284;2023-03-01T02:00:12;95159.13;;;12.59;48.90
30819;BME280;17546;42.674;23.284;2023-03-01T02:02:39;95144.78;;;12.78;48.49
30819;BME280;17546;42.674;23.284;2023-03-01T02:05:11;95145.59;;;12.30;49.67
30819;BME280;17546;42.674;23.284;2023-03-01T02:07:40;95133.38;;;12.59;48.82
30819;BME280;17546;42.674;23.284;2023-03-01T02:10:08;95129.94;;;12.27;49.38
30819;BME280;17546;42.674;23.284;2023-03-01T02:12:34;95129.34;;;12.66;48.76
30819;BME280;17546;42.674;23.284;2023-03-01T02:15:00;95123.53;;;12.75;48.38
30819;BME280;17546;42.674;23.284;2023-03-01T02:17:25;95126.38;;;12.97;47.99
30819;BME280;17546;42.674;23.284;2023-03-01T02:22:37;95125.38;;;13.17;47.38
30819;BME280;17546;42.674;23.284;2023-03-01T02:30:31;95121.59;;;13.26;47.08
30819;BME280;17546;42.674;23.284;2023-03-01T02:32:59;95130.47;;;13.53;46.49
30819;BME280;17546;42.674;23.284;2023-03-01T02:35:29;95140.81;;;13.58;46.37
30819;BME280;17546;42.674;23.284;2023-03-01T02:37:55;95141.59;;;13.70;46.12
30819;BME280;17546;42.674;23.284;2023-03-01T02:40:22;95141.84;;;13.66;46.19
30819;BME280;17546;42.674;23.284;2023-03-01T02:42:53;95139.03;;;13.77;45.99
30819;BME280;17546;42.674;23.284;2023-03-01T02:45:20;95141.06;;;13.88;45.31
30819;BME280;17546;42.674;23.284;2023-03-01T02:47:46;95133.72;;;13.79;45.66
30819;BME280;17546;42.674;23.284;2023-03-01T02:53:23;95137.28;;;13.74;45.55
30819;BME280;17546;42.674;23.284;2023-03-01T02:55:53;95135.78;;;13.51;46.05
30819;BME280;17546;42.674;23.284;2023-03-01T02:58:20;95138.81;;;13.64;45.90
30819;BME280;17546;42.674;23.284;2023-03-01T03:00:46;95138.53;;;13.79;45.62
30819;BME280;17546;42.674;23.284;2023-03-01T03:03:20;95133.47;;;13.77;45.64
30819;BME280;17546;42.674;23.284;2023-03-01T03:05:46;95135.78;;;13.39;46.42
30819;BME280;17546;42.674;23.284;2023-03-01T03:08:14;95133.25;;;13.53;46.23
30819;BME280;17546;42.674;23.284;2023-03-01T03:10:42;95131.25;;;13.36;46.60
30819;BME280;17546;42.674;23.284;2023-03-01T03:13:12;95131.25;;;13.36;46.79
30819;BME280;17546;42.674;23.284;2023-03-01T03:15:39;95139.31;;;13.51;46.49
30819;BME280;17546;42.674;23.284;2023-03-01T03:18:09;95147.94;;;13.48;46.47
30819;BME280;17546;42.674;23.284;2023-03-01T03:20:35;95140.56;;;13.73;46.03
30819;BME280;17546;42.674;23.284;2023-03-01T03:23:01;95143.13;;;13.37;46.50
30819;BME280;17546;42.674;23.284;2023-03-01T03:25:28;95136.03;;;13.41;46.67
30819;BME280;17546;42.674;23.284;2023-03-01T03:27:54;95134.53;;;13.40;46.70
30819;BME280;17546;42.674;23.284;2023-03-01T03:30:24;95140.84;;;13.30;46.99
30819;BME280;17546;42.674;23.284;2023-03-01T03:32:50;95144.66;;;13.60;46.33
30819;BME280;17546;42.674;23.284;2023-03-01T03:35:29;95134.72;;;13.09;47.54
30819;BME280;17546;42.674;23.284;2023-03-01T03:37:58;95139.84;;;13.38;47.03
30819;BME280;17546;42.674;23.284;2023-03-01T03:40:35;95143.84;;;13.26;47.20
30819;BME280;17546;42.674;23.284;2023-03-01T03:43:03;95148.44;;;13.46;46.67
30819;BME280;17546;42.674;23.284;2023-03-01T03:45:28;95150.91;;;13.27;47.03
30819;BME280;17546;42.674;23.284;2023-03-01T03:47:54;95155.16;;;12.89;48.07
30819;BME280;17546;42.674;23.284;2023-03-01T03:50:19;95153.94;;;13.07;47.62
30819;BME280;17546;42.674;23.284;2023-03-01T03:52:45;95149.88;;;12.96;47.87
30819;BME280;17546;42.674;23.284;2023-03-01T03:55:11;95146.00;;;12.66;48.50
30819;BME280;17546;42.674;23.284;2023-03-01T03:57:38;95146.03;;;12.77;48.21
30819;BME280;17546;42.674;23.284;2023-03-01T04:00:05;95129.38;;;12.82;48.11
30819;BME280;17546;42.674;23.284;2023-03-01T04:02:38;95139.16;;;12.55;48.66
30819;BME280;17546;42.674;23.284;2023-03-01T04:05:04;95133.81;;;12.46;48.93
30819;BME280;17546;42.674;23.284;2023-03-01T04:07:30;95140.44;;;12.06;49.78
30819;BME280;17546;42.674;23.284;2023-03-01T04:09:55;95144.59;;;12.22;49.45
30819;BME280;17546;42.674;23.284;2023-03-01T04:12:21;95148.38;;;12.24;49.62
30819;BME280;17546;42.674;23.284;2023-03-01T04:14:48;95143.75;;;12.10;49.85
30819;BME280;17546;42.674;23.284;2023-03-01T04:17:13;95143.03;;;12.20;49.62
30819;BME280;17546;42.674;23.284;2023-03-01T04:19:39;95144.88;;;12.35;49.29
30819;BME280;17546;42.674;23.284;2023-03-01T04:22:05;95142.97;;;11.34;51.78
30819;BME280;17546;42.674;23.284;2023-03-01T04:24:35;95140.25;;;12.15;49.96
30819;BME280;17546;42.674;23.284;2023-03-01T04:27:01;95145.56;;;11.44;51.36
30819;BME280;17546;42.674;23.284;2023-03-01T04:29:27;95147.78;;;12.09;49.96
30819;BME280;17546;42.674;23.284;2023-03-01T04:31:52;95141.50;;;12.08;50.00
30819;BME280;17546;42.674;23.284;2023-03-01T04:34:18;95152.84;;;11.35;51.64
30819;BME280;17546;42.674;23.284;2023-03-01T04:36:43;95137.41;;;11.66;51.14
30819;BME280;17546;42.674;23.284;2023-03-01T04:39:09;95132.50;;;11.87;50.50
30819;BME280;17546;42.674;23.284;2023-03-01T04:41:38;95137.38;;;11.98;50.26
30819;BME280;17546;42.674;23.284;2023-03-01T04:44:09;95133.03;;;11.54;51.22
30819;BME280;17546;42.674;23.284;2023-03-01T04:46:37;95138.72;;;12.14;50.15
30819;BME280;17546;42.674;23.284;2023-03-01T04:49:03;95137.97;;;12.13;49.98
30819;BME280;17546;42.674;23.284;2023-03-01T04:51:28;95134.50;;;12.30;49.77
30819;BME280;17546;42.674;23.284;2023-03-01T04:53:54;95122.81;;;11.71;50.92
30819;BME280;17546;42.674;23.284;2023-03-01T04:56:20;95125.00;;;11.93;50.59
30819;BME280;17546;42.674;23.284;2023-03-01T04:58:48;95131.47;;;12.28;49.90
30819;BME280;17546;42.674;23.284;2023-03-01T05:01:16;95123.38;;;12.30;49.37
30819;BME280;17546;42.674;23.284;2023-03-01T05:03:50;95127.69;;;12.31;49.63
30819;BME280;17546;42.674;23.284;2023-03-01T05:06:17;95138.53;;;12.29;49.67
30819;BME280;17546;42.674;23.284;2023-03-01T05:08:43;95133.00;;;12.29;49.68
30819;BME280;17546;42.674;23.284;2023-03-01T05:11:10;95140.84;;;12.30;49.63
30819;BME280;17546;42.674;23.284;2023-03-01T05:13:37;95135.19;;;12.13;50.07
30819;BME280;17546;42.674;23.284;2023-03-01T05:16:03;95128.84;;;12.02;50.30
30819;BME280;17546;42.674;23.284;2023-03-01T05:18:31;95135.97;;;12.19;49.93
30819;BME280;17546;42.674;23.284;2023-03-01T05:21:20;95140.34;;;12.37;49.42
30819;BME280;17546;42.674;23.284;2023-03-01T05:23:45;95139.88;;;12.45;49.06
30819;BME280;17546;42.674;23.284;2023-03-01T05:26:12;95145.34;;;11.85;50.33
30819;BME280;17546;42.674;23.284;2023-03-01T05:28:38;95145.00;;;12.09;50.18
30819;BME280;17546;42.674;23.284;2023-03-01T05:31:05;95139.63;;;12.48;49.31
30819;BME280;17546;42.674;23.284;2023-03-01T05:33:38;95145.66;;;12.41;49.17
30819;BME280;17546;42.674;23.284;2023-03-01T05:36:05;95129.25;;;12.37;49.22
30819;BME280;17546;42.674;23.284;2023-03-01T05:38:31;95139.94;;;12.02;49.95
30819;BME280;17546;42.674;23.284;2023-03-01T05:40:56;95149.81;;;12.08;49.98
30819;BME280;17546;42.674;23.284;2023-03-01T05:43:22;95143.38;;;12.39;49.36
30819;BME280;17546;42.674;23.284;2023-03-01T05:45:48;95140.31;;;12.32;49.25
30819;BME280;17546;42.674;23.284;2023-03-01T05:48:13;95133.47;;;12.22;49.25
30819;BME280;17546;42.674;23.284;2023-03-01T05:50:41;95151.03;;;12.02;49.90
30819;BME280;17546;42.674;23.284;2023-03-01T05:53:19;95156.81;;;11.66;51.04
30819;BME280;17546;42.674;23.284;2023-03-01T05:55:47;95152.31;;;12.06;49.96
30819;BME280;17546;42.674;23.284;2023-03-01T05:58:15;95155.00;;;12.38;49.28
30819;BME280;17546;42.674;23.284;2023-03-01T06:00:42;95158.41;;;12.70;48.43
30819;BME280;17546;42.674;23.284;2023-03-01T06:03:10;95158.88;;;12.57;48.56
30819;BME280;17546;42.674;23.284;2023-03-01T06:05:36;95163.69;;;12.63;48.44
30819;BME280;17546;42.674;23.284;2023-03-01T06:08:02;95163.38;;;12.49;48.66
30819;BME280;17546;42.674;23.284;2023-03-01T06:10:28;95171.66;;;12.38;48.97
30819;BME280;17546;42.674;23.284;2023-03-01T06:12:54;95175.53;;;12.57;48.38
30819;BME280;17546;42.674;23.284;2023-03-01T06:15:21;95174.88;;;12.19;49.34
30819;BME280;17546;42.674;23.284;2023-03-01T06:17:47;95170.38;;;11.90;49.85
30819;BME280;17546;42.674;23.284;2023-03-01T06:20:14;95186.03;;;12.31;49.22
30819;BME280;17546;42.674;23.284;2023-03-01T06:22:44;95186.88;;;12.48;48.92
30819;BME280;17546;42.674;23.284;2023-03-01T06:25:11;95189.41;;;12.52;48.94
30819;BME280;17546;42.674;23.284;2023-03-01T06:27:37;95191.34;;;11.91;49.95
30819;BME280;17546;42.674;23.284;2023-03-01T06:30:03;95186.94;;;12.16;49.65
30819;BME280;17546;42.674;23.284;2023-03-01T06:32:28;95184.47;;;12.24;49.15
30819;BME280;17546;42.674;23.284;2023-03-01T06:34:55;95193.84;;;12.32;49.26
30819;BME280;17546;42.674;23.284;2023-03-01T06:37:20;95184.66;;;12.64;48.39
30819;BME280;17546;42.674;23.284;2023-03-01T06:39:46;95191.13;;;12.38;49.16
30819;BME280;17546;42.674;23.284;2023-03-01T06:42:11;95194.13;;;12.34;49.35
30819;BME280;17546;42.674;23.284;2023-03-01T06:44:37;95196.94;;;12.40;49.57
30819;BME280;17546;42.674;23.284;2023-03-01T06:47:03;95189.06;;;12.33;49.21
30819;BME280;17546;42.674;23.284;2023-03-01T06:49:28;95183.34;;;11.67;50.63
30819;BME280;17546;42.674;23.284;2023-03-01T06:51:55;95189.78;;;12.28;49.73
30819;BME280;17546;42.674;23.284;2023-03-01T06:54:21;95189.06;;;12.33;49.58
30819;BME280;17546;42.674;23.284;2023-03-01T06:56:48;95188.91;;;12.53;49.01
30819;BME280;17546;42.674;23.284;2023-03-01T06:59:17;95192.56;;;12.82;48.32
30819;BME280;17546;42.674;23.284;2023-03-01T07:01:43;95193.84;;;12.32;49.53
30819;BME280;17546;42.674;23.284;2023-03-01T07:04:09;95191.22;;;12.60;49.11
30819;BME280;17546;42.674;23.284;2023-03-01T07:06:34;95197.66;;;13.00;47.89
30819;BME280;17546;42.674;23.284;2023-03-01T07:09:00;95195.56;;;12.73;48.70
30819;BME280;17546;42.674;23.284;2023-03-01T07:11:25;95194.06;;;12.77;48.26
30819;BME280;17546;42.674;23.284;2023-03-01T07:13:51;95197.13;;;12.91;48.12
30819;BME280;17546;42.674;23.284;2023-03-01T07:16:16;95193.84;;;12.92;48.00
30819;BME280;17546;42.674;23.284;2023-03-01T07:18:42;95185.56;;;13.20;47.18
30819;BME280;17546;42.674;23.284;2023-03-01T07:21:09;95189.78;;;12.82;47.80
30819;BME280;17546;42.674;23.284;2023-03-01T07:23:36;95192.34;;;13.02;47.57
30819;BME280;17546;42.674;23.284;2023-03-01T07:26:02;95188.97;;;12.70;48.04
30819;BME280;17546;42.674;23.284;2023-03-01T07:28:27;95177.03;;;12.58;48.23
30819;BME280;17546;42.674;23.284;2023-03-01T07:30:54;95171.34;;;12.96;47.38
30819;BME280;17546;42.674;23.284;2023-03-01T07:33:20;95175.38;;;12.89;47.77
30819;BME280;17546;42.674;23.284;2023-03-01T07:35:45;95179.16;;;12.75;48.00
30819;BME280;17546;42.674;23.284;2023-03-01T07:38:10;95178.59;;;12.65;48.17
30819;BME280;17546;42.674;23.284;2023-03-01T07:40:36;95168.81;;;12.81;47.84
30819;BME280;17546;42.674;23.284;2023-03-01T07:43:01;95180.88;;;12.67;48.32
30819;BME280;17546;42.674;23.284;2023-03-01T07:45:28;95181.22;;;13.02;47.36
30819;BME280;17546;42.674;23.284;2023-03-01T07:47:54;95173.63;;;12.97;47.40
30819;BME280;17546;42.674;23.284;2023-03-01T07:50:20;95182.22;;;12.88;47.47
30819;BME280;17546;42.674;23.284;2023-03-01T07:52:47;95183.59;;;13.38;46.41
30819;BME280;17546;42.674;23.284;2023-03-01T07:55:13;95177.53;;;13.39;46.40
30819;BME280;17546;42.674;23.284;2023-03-01T07:57:39;95172.72;;;13.46;46.27
30819;BME280;17546;42.674;23.284;2023-03-01T08:00:05;95164.06;;;13.21;46.25
30819;BME280;17546;42.674;23.284;2023-03-01T08:02:31;95167.34;;;13.19;46.84
30819;BME280;17546;42.674;23.284;2023-03-01T08:04:57;95162.22;;;12.84;46.95
30819;BME280;17546;42.674;23.284;2023-03-01T08:07:22;95170.91;;;13.26;46.28
30819;BME280;17546;42.674;23.284;2023-03-01T08:09:48;95160.53;;;13.15;46.51
30819;BME280;17546;42.674;23.284;2023-03-01T08:12:13;95159.25;;;13.27;46.15
30819;BME280;17546;42.674;23.284;2023-03-01T08:14:39;95164.59;;;13.25;46.37
30819;BME280;17546;42.674;23.284;2023-03-01T08:17:04;95160.03;;;13.28;46.08
30819;BME280;17546;42.674;23.284;2023-03-01T08:19:30;95166.13;;;13.37;45.99
30819;BME280;17546;42.674;23.284;2023-03-01T08:21:55;95160.25;;;13.01;46.61
30819;BME280;17546;42.674;23.284;2023-03-01T08:24:23;95165.84;;;13.24;46.46
30819;BME280;17546;42.674;23.284;2023-03-01T08:26:49;95158.75;;;13.12;46.35
30819;BME280;17546;42.674;23.284;2023-03-01T08:29:16;95166.31;;;13.00;46.64
30819;BME280;17546;42.674;23.284;2023-03-01T08:31:41;95158.28;;;13.41;46.06
30819;BME280;17546;42.674;23.284;2023-03-01T08:34:09;95163.59;;;13.84;45.54
30819;BME280;17546;42.674;23.284;2023-03-01T08:36:38;95172.66;;;14.02;44.99
30819;BME280;17546;42.674;23.284;2023-03-01T08:39:06;95170.91;;;13.99;44.84
30819;BME280;17546;42.674;23.284;2023-03-01T08:41:32;95168.09;;;14.10;45.01
30819;BME280;17546;42.674;23.284;2023-03-01T08:43:58;95162.03;;;14.06;44.64
30819;BME280;17546;42.674;23.284;2023-03-01T08:46:35;95168.00;;;14.50;43.74
30819;BME280;17546;42.674;23.284;2023-03-01T08:49:09;95170.44;;;13.89;43.93
30819;BME280;17546;42.674;23.284;2023-03-01T08:51:36;95165.03;;;14.19;44.42
30819;BME280;17546;42.674;23.284;2023-03-01T08:54:06;95167.22;;;14.60;43.90
30819;BME280;17546;42.674;23.284;2023-03-01T08:56:32;95174.59;;;14.46;43.66
30819;BME280;17546;42.674;23.284;2023-03-01T08:58:58;95168.09;;;14.10;43.56
30819;BME280;17546;42.674;23.284;2023-03-01T09:01:24;95169.78;;;14.41;43.59
30819;BME280;17546;42.674;23.284;2023-03-01T09:03:55;95166.88;;;13.89;43.84
30819;BME280;17546;42.674;23.284;2023-03-01T09:06:26;95159.28;;;13.89;44.22
30819;BME280;17546;42.674;23.284;2023-03-01T09:08:54;95150.38;;;14.13;43.58
30819;BME280;17546;42.674;23.284;2023-03-01T09:11:21;95156.63;;;14.42;43.53
30819;BME280;17546;42.674;23.284;2023-03-01T09:13:49;95166.44;;;14.54;43.03
30819;BME280;17546;42.674;23.284;2023-03-01T09:16:18;95158.13;;;14.43;43.33
30819;BME280;17546;42.674;23.284;2023-03-01T09:18:49;95173.34;;;14.42;42.76
30819;BME280;17546;42.674;23.284;2023-03-01T09:21:16;95154.59;;;14.42;43.05
30819;BME280;17546;42.674;23.284;2023-03-01T09:23:46;95162.59;;;14.74;42.40
30819;BME280;17546;42.674;23.284;2023-03-01T09:26:18;95154.84;;;14.39;42.90
30819;BME280;17546;42.674;23.284;2023-03-01T09:28:45;95152.88;;;14.22;43.15
30819;BME280;17546;42.674;23.284;2023-03-01T09:31:14;95154.94;;;14.05;43.69
30819;BME280;17546;42.674;23.284;2023-03-01T09:33:41;95163.22;;;14.44;42.93
30819;BME280;17546;42.674;23.284;2023-03-01T09:36:13;95159.78;;;13.99;43.43
30819;BME280;17546;42.674;23.284;2023-03-01T09:38:39;95139.53;;;13.98;44.09
30819;BME280;17546;42.674;23.284;2023-03-01T09:44:18;95145.34;;;13.27;44.79
30819;BME280;17546;42.674;23.284;2023-03-01T09:46:48;95139.31;;;13.68;44.11
30819;BME280;17546;42.674;23.284;2023-03-01T09:49:39;95151.47;;;13.76;43.90
30819;BME280;17546;42.674;23.284;2023-03-01T09:54:57;95139.78;;;13.83;44.66
30819;BME280;17546;42.674;23.284;2023-03-01T09:57:43;95134.97;;;13.84;44.04
30819;BME280;17546;42.674;23.284;2023-03-01T10:03:13;95124.34;;;13.94;43.70
30819;BME280;17546;42.674;23.284;2023-03-01T10:05:52;95131.63;;;14.08;44.09
30819;BME280;17546;42.674;23.284;2023-03-01T10:08:42;95118.22;;;14.12;44.09
30819;BME280;17546;42.674;23.284;2023-03-01T10:11:24;95121.69;;;14.30;43.56
30819;BME280;17546;42.674;23.284;2023-03-01T10:19:03;95125.69;;;14.51;43.47
30819;BME280;17546;42.674;23.284;2023-03-01T10:21:30;95124.94;;;14.45;43.28
30819;BME280;17546;42.674;23.284;2023-03-01T10:24:10;95109.09;;;14.12;43.62
30819;BME280;17546;42.674;23.284;2023-03-01T10:26:44;95114.25;;;14.60;43.01
30819;BME280;17546;42.674;23.284;2023-03-01T10:29:12;95113.47;;;13.73;44.59
30819;BME280;17546;42.674;23.284;2023-03-01T10:31:39;95119.00;;;14.01;44.47
30819;BME280;17546;42.674;23.284;2023-03-01T10:34:30;95114.44;;;14.68;43.90
30819;BME280;17546;42.674;23.284;2023-03-01T10:37:01;95107.31;;;14.73;43.32
30819;BME280;17546;42.674;23.284;2023-03-01T10:39:31;95108.00;;;14.32;43.74
30819;BME280;17546;42.674;23.284;2023-03-01T10:42:03;95100.31;;;14.60;43.49
30819;BME280;17546;42.674;23.284;2023-03-01T10:44:43;95104.28;;;14.12;43.79
30819;BME280;17546;42.674;23.284;2023-03-01T10:47:26;95105.13;;;14.54;43.49
30819;BME280;17546;42.674;23.284;2023-03-01T10:52:21;95107.47;;;14.44;43.02
30819;BME280;17546;42.674;23.284;2023-03-01T10:57:39;95107.94;;;14.60;43.10
30819;BME280;17546;42.674;23.284;2023-03-01T11:02:50;95103.91;;;14.55;43.37
30819;BME280;17546;42.674;23.284;2023-03-01T11:05:24;95109.16;;;14.64;42.82
30819;BME280;17546;42.674;23.284;2023-03-01T11:07:54;95099.03;;;14.61;42.89
30819;BME280;17546;42.674;23.284;2023-03-01T11:10:26;95094.69;;;15.07;42.46
30819;BME280;17546;42.674;23.284;2023-03-01T11:12:53;95110.81;;;15.26;41.94
30819;BME280;17546;42.674;23.284;2023-03-01T11:15:23;95098.19;;;15.14;41.94
30819;BME280;17546;42.674;23.284;2023-03-01T11:17:49;95099.72;;;15.15;41.95
30819;BME280;17546;42.674;23.284;2023-03-01T11:20:25;95098.41;;;15.21;41.77
30819;BME280;17546;42.674;23.284;2023-03-01T11:22:59;95100.09;;;15.00;42.02
30819;BME280;17546;42.674;23.284;2023-03-01T11:25:30;95091.06;;;14.82;42.37
30819;BME280;17546;42.674;23.284;2023-03-01T11:27:59;95097.47;;;15.07;42.21
30819;BME280;17546;42.674;23.284;2023-03-01T11:30:29;95087.44;;;14.93;41.88
30819;BME280;17546;42.674;23.284;2023-03-01T11:33:08;95094.66;;;15.13;41.54
30819;BME280;17546;42.674;23.284;2023-03-01T11:35:44;95091.66;;;15.05;42.14
30819;BME280;17546;42.674;23.284;2023-03-01T11:38:25;95081.38;;;15.25;41.82
30819;BME280;17546;42.674;23.284;2023-03-01T11:41:21;95075.56;;;14.34;43.00
30819;BME280;17546;42.674;23.284;2023-03-01T12:11:01;95051.56;;;15.08;41.81
30819;BME280;17546;42.674;23.284;2023-03-01T12:16:48;95041.44;;;15.05;42.21
30819;BME280;17546;42.674;23.284;2023-03-01T12:51:26;95019.84;;;15.42;41.40
30819;BME280;17546;42.674;23.284;2023-03-01T12:53:55;95021.13;;;15.11;41.37
30819;BME280;17546;42.674;23.284;2023-03-01T12:56:42;95022.66;;;15.61;40.95
30819;BME280;17546;42.674;23.284;2023-03-01T12:59:39;95019.47;;;15.26;41.75
30819;BME280;17546;42.674;23.284;2023-03-01T13:02:41;95033.19;;;15.49;41.17
30819;BME280;17546;42.674;23.284;2023-03-01T13:07:50;95012.72;;;14.86;42.09
30819;BME280;17546;42.674;23.284;2023-03-01T13:13:22;95025.03;;;15.26;41.44
30819;BME280;17546;42.674;23.284;2023-03-01T13:15:48;95024.56;;;15.77;41.10
30819;BME280;17546;42.674;23.284;2023-03-01T13:33:54;95039.97;;;16.08;40.12
30819;BME280;17546;42.674;23.284;2023-03-01T13:38:57;95036.66;;;16.10;39.53
30819;BME280;17546;42.674;23.284;2023-03-01T13:46:51;95026.75;;;15.60;40.41
30819;BME280;17546;42.674;23.284;2023-03-01T13:49:23;95021.88;;;15.11;41.43
30819;BME280;17546;42.674;23.284;2023-03-01T13:51:50;95026.97;;;15.37;41.04
30819;BME280;17546;42.674;23.284;2023-03-01T13:54:28;95015.81;;;15.07;41.79
30819;BME280;17546;42.674;23.284;2023-03-01T13:56:55;95019.09;;;15.41;41.49
30819;BME280;17546;42.674;23.284;2023-03-01T13:59:21;95022.16;;;15.62;41.23
30819;BME280;17546;42.674;23.284;2023-03-01T14:01:54;95020.66;;;15.86;40.73
30819;BME280;17546;42.674;23.284;2023-03-01T14:04:31;95014.25;;;15.66;40.93
30819;BME280;17546;42.674;23.284;2023-03-01T14:07:16;95021.88;;;15.66;40.87
30819;BME280;17546;42.674;23.284;2023-03-01T14:09:44;95013.16;;;16.19;40.48
30819;BME280;17546;42.674;23.284;2023-03-01T14:15:02;95013.47;;;16.15;40.28
30819;BME280;17546;42.674;23.284;2023-03-01T14:17:46;95017.03;;;15.66;40.80
30819;BME280;17546;42.674;23.284;2023-03-01T14:20:18;95018.47;;;15.24;41.79
30819;BME280;17546;42.674;23.284;2023-03-01T14:22:45;95013.72;;;15.43;41.25
30819;BME280;17546;42.674;23.284;2023-03-01T14:25:22;95010.59;;;15.77;40.57
30819;BME280;17546;42.674;23.284;2023-03-01T14:28:03;95007.97;;;15.36;41.18
30819;BME280;17546;42.674;23.284;2023-03-01T14:30:34;95008.72;;;15.61;41.34
30819;BME280;17546;42.674;23.284;2023-03-01T14:33:03;95011.19;;;15.70;40.93
30819;BME280;17546;42.674;23.284;2023-03-01T14:35:31;95004.78;;;15.75;41.05
30819;BME280;17546;42.674;23.284;2023-03-01T14:37:57;95001.03;;;15.67;40.89
30819;BME280;17546;42.674;23.284;2023-03-01T14:40:26;95008.66;;;15.42;41.96
30819;BME280;17546;42.674;23.284;2023-03-01T14:42:58;94998.59;;;15.33;41.90
30819;BME280;17546;42.674;23.284;2023-03-01T14:45:25;95007.22;;;15.35;41.99
30819;BME280;17546;42.674;23.284;2023-03-01T14:47:53;95008.66;;;15.42;41.79
30819;BME280;17546;42.674;23.284;2023-03-01T14:50:27;95012.31;;;15.31;42.26
30819;BME280;17546;42.674;23.284;2023-03-01T14:53:01;95009.25;;;15.35;42.10
30819;BME280;17546;42.674;23.284;2023-03-01T14:57:52;95008.19;;;15.38;42.08
30819;BME280;17546;42.674;23.284;2023-03-01T15:02:45;94989.00;;;14.21;45.08
30819;BME280;17546;42.674;23.284;2023-03-01T15:05:14;94989.94;;;13.88;46.01
30819;BME280;17546;42.674;23.284;2023-03-01T15:07:42;94999.72;;;14.58;44.50
30819;BME280;17546;42.674;23.284;2023-03-01T15:10:40;94985.75;;;14.64;44.30
30819;BME280;17546;42.674;23.284;2023-03-01T15:13:13;94995.66;;;14.90;44.01